Time;durP1;ratioP1;P1;durP2;ratioP2;P2;SDS_P1;SDS_P2;PMS_P1;PMS_P2;Temp;Humidity;BMP_temperature;BMP_pressure;BME280_temperature;BME280_humidity;BME280_pressure;Samples;Min_cycle;Max_cycle;Signal;HPM_P1;HPM_P2
2022/06/15 00:02:32;;;;;;;5.13;3.53;;;18.60;68.20;;;;;;5052980;28;20404;-52
2022/06/15 00:05:16;;;;;;;7.80;4.13;;;18.70;68.00;;;;;;5053368;28;20039;-54
2022/06/15 00:08:00;;;;;;;6.30;4.30;;;18.60;68.00;;;;;;5037699;28;20116;-54
2022/06/15 00:10:45;;;;;;;5.47;4.63;;;18.60;68.20;;;;;;5053085;28;20024;-55
2022/06/15 00:13:29;;;;;;;4.93;3.78;;;18.60;68.00;;;;;;5037197;28;20044;-55
2022/06/15 00:16:14;;;;;;;;;;;18.50;68.00;;;;;;5053046;28;20569;-54
2022/06/15 00:18:58;;;;;;;6.50;3.30;;;18.50;68.10;;;;;;5052569;28;19916;-54
2022/06/15 00:21:43;;;;;;;6.63;3.30;;;18.40;68.30;;;;;;5052968;28;20056;-55
2022/06/15 00:24:28;;;;;;;9.65;3.90;;;18.30;68.60;;;;;;5052577;28;20036;-56
2022/06/15 00:27:12;;;;;;;6.15;3.95;;;18.20;68.90;;;;;;5051441;28;20079;-55
2022/06/15 00:29:56;;;;;;;5.97;3.00;;;18.10;69.10;;;;;;5052474;28;20059;-56
2022/06/15 00:32:40;;;;;;;4.00;3.15;;;18.10;69.00;;;;;;5052340;28;20523;-58
2022/06/15 00:35:24;;;;;;;4.22;3.40;;;18.20;69.10;;;;;;5037280;28;20075;-56
2022/06/15 00:38:08;;;;;;;7.57;3.53;;;18.10;69.30;;;;;;5052766;28;20047;-56
2022/06/15 00:40:53;;;;;;;5.60;3.60;;;18.00;69.30;;;;;;5036270;28;20057;-56
2022/06/15 00:43:37;;;;;;;6.20;3.30;;;18.00;69.60;;;;;;5061188;28;20127;-52
2022/06/15 00:46:41;;;;;;;7.03;3.42;;;17.90;69.60;;;;;;5052199;28;20048;-51
2022/06/15 00:49:36;;;;;;;5.47;3.30;;;17.90;69.80;;;;;;5052790;28;20063;-53
2022/06/15 00:52:34;;;;;;;5.55;3.58;;;17.90;69.90;;;;;;5051909;28;20043;-55
2022/06/15 00:55:26;;;;;;;6.10;4.03;;;17.80;70.20;;;;;;5041226;28;20768;-50
2022/06/15 00:58:10;;;;;;;9.32;6.72;;;17.70;70.20;;;;;;5052830;28;20116;-55
2022/06/15 01:00:56;;;;;;;9.18;5.25;;;17.80;70.20;;;;;;5052112;28;20155;-56
2022/06/15 01:03:41;;;;;;;6.60;4.80;;;17.70;70.40;;;;;;5052632;28;20036;-56
2022/06/15 01:06:48;;;;;;;5.13;3.55;;;17.70;70.40;;;;;;5035617;28;20035;-53
2022/06/15 01:09:50;;;;;;;8.05;4.07;;;17.70;70.40;;;;;;5052043;28;20064;-57
2022/06/15 01:13:00;;;;;;;6.55;3.60;;;17.70;70.20;;;;;;5032626;28;20109;-53
2022/06/15 01:16:11;;;;;;;5.25;3.65;;;17.70;70.40;;;;;;5037621;28;20024;-51
2022/06/15 01:19:04;;;;;;;7.05;4.10;;;17.60;70.60;;;;;;5051902;28;20052;-52
2022/06/15 01:22:23;;;;;;;8.35;6.18;;;17.60;70.50;;;;;;5052163;28;20032;-55
2022/06/15 01:25:16;;;;;;;9.52;6.60;;;17.50;71.00;;;;;;5043583;28;20036;-53
2022/06/15 01:28:16;;;;;;;11.38;6.68;;;17.50;71.00;;;;;;5020550;28;20515;-50
2022/06/15 01:31:24;;;;;;;9.32;5.28;;;17.50;71.10;;;;;;5023716;28;20040;-53
2022/06/15 01:34:46;;;;;;;9.07;4.55;;;17.40;71.20;;;;;;5056236;28;20078;-50
2022/06/15 01:37:44;;;;;;;6.10;3.95;;;17.40;71.40;;;;;;4974474;28;20034;-53
2022/06/15 01:40:36;;;;;;;5.40;3.92;;;17.30;71.50;;;;;;5035948;28;20036;-57
2022/06/15 01:43:26;;;;;;;7.43;4.28;;;17.30;71.80;;;;;;5050812;28;20063;-55
2022/06/15 01:46:11;;;;;;;6.05;4.07;;;17.20;71.80;;;;;;5047183;28;20075;-56
2022/06/15 01:48:56;;;;;;;6.30;3.92;;;17.20;72.00;;;;;;5055519;28;20055;-58
2022/06/15 01:51:43;;;;;;;4.15;3.60;;;17.20;71.90;;;;;;5055861;28;20424;-50
2022/06/15 01:54:33;;;;;;;6.22;4.13;;;17.20;72.00;;;;;;5056091;28;20057;-54
2022/06/15 01:57:20;;;;;;;14.20;9.82;;;17.10;72.00;;;;;;5039621;28;20442;-55
2022/06/15 02:00:08;;;;;;;14.80;11.15;;;17.20;72.20;;;;;;5055471;28;20056;-56
2022/06/15 02:03:10;;;;;;;13.75;9.07;;;17.20;72.40;;;;;;5036020;28;20092;-56
2022/06/15 02:06:05;;;;;;;9.60;6.97;;;17.20;72.40;;;;;;5051836;28;20086;-54
2022/06/15 02:09:11;;;;;;;7.50;4.53;;;17.20;72.20;;;;;;5055336;28;20147;-55
2022/06/15 02:11:56;;;;;;;;;;;17.10;72.20;;;;;;5055669;28;20040;-54
2022/06/15 02:14:46;;;;;;;10.30;5.68;;;17.10;72.60;;;;;;5055713;28;20359;-55
2022/06/15 02:17:38;;;;;;;7.65;4.82;;;17.20;72.40;;;;;;5054568;28;20064;-53
2022/06/15 02:20:31;;;;;;;8.63;7.45;;;17.10;72.60;;;;;;5055226;28;20052;-56
2022/06/15 02:23:18;;;;;;;12.02;9.80;;;17.10;73.10;;;;;;5055169;28;20036;-53
2022/06/15 02:26:03;;;;;;;12.57;9.82;;;17.10;73.20;;;;;;5054540;28;20728;-54
2022/06/15 02:28:52;;;;;;;9.48;6.85;;;17.10;73.10;;;;;;5055444;28;20067;-54
2022/06/15 02:31:37;;;;;;;8.43;6.50;;;17.00;73.50;;;;;;5054985;28;20040;-55
2022/06/15 02:34:21;;;;;;;8.00;6.20;;;17.00;73.80;;;;;;5055275;28;20447;-56
2022/06/15 02:37:06;;;;;;;;;;;16.90;74.50;;;;;;5053641;28;20039;-56
2022/06/15 02:39:50;;;;;;;8.27;5.50;;;16.80;74.40;;;;;;5054946;28;19966;-56
2022/06/15 02:42:37;;;;;;;8.18;5.63;;;16.80;74.90;;;;;;5055598;28;20409;-54
2022/06/15 02:45:28;;;;;;;7.15;4.90;;;16.80;75.30;;;;;;5053835;28;20095;-54
2022/06/15 02:48:12;;;;;;;7.32;4.35;;;16.70;75.60;;;;;;5039174;28;20515;-52
2022/06/15 02:51:07;;;;;;;7.75;4.82;;;16.70;76.10;;;;;;5052901;28;20539;-56
2022/06/15 02:53:55;;;;;;;9.73;5.03;;;16.70;75.70;;;;;;5055152;28;20553;-54
2022/06/15 02:56:40;;;;;;;7.88;5.15;;;16.80;75.60;;;;;;5053622;28;20105;-56
2022/06/15 02:59:24;;;;;;;;;;;16.70;75.70;;;;;;5054666;28;20051;-54
2022/06/15 03:02:08;;;;;;;6.45;4.53;;;16.60;76.50;;;;;;5054914;28;19974;-54
2022/06/15 03:04:52;;;;;;;7.07;4.28;;;16.60;76.80;;;;;;5054649;28;20553;-56
2022/06/15 03:07:37;;;;;;;8.82;4.85;;;16.60;77.60;;;;;;5039298;28;20043;-55
2022/06/15 03:10:21;;;;;;;7.72;4.70;;;16.50;77.50;;;;;;5054022;28;20125;-50
2022/06/15 03:13:06;;;;;;;8.15;4.47;;;16.60;77.60;;;;;;5053929;28;20032;-50
2022/06/15 03:15:49;;;;;;;8.25;5.07;;;16.60;78.00;;;;;;5053932;28;20416;-53
2022/06/15 03:18:34;;;;;;;9.35;4.10;;;16.60;78.00;;;;;;5053524;28;20033;-56
2022/06/15 03:21:18;;;;;;;7.57;4.32;;;16.60;78.10;;;;;;5053377;28;20067;-56
2022/06/15 03:24:02;;;;;;;5.57;3.80;;;16.60;77.90;;;;;;5053172;28;20091;-58
2022/06/15 03:26:47;;;;;;;;;;;16.60;77.80;;;;;;5052924;28;20044;-56
2022/06/15 03:29:31;;;;;;;6.88;4.13;;;16.70;78.50;;;;;;5053267;28;19919;-54
2022/06/15 03:32:16;;;;;;;7.25;4.38;;;16.60;78.90;;;;;;5033152;28;20129;-54
2022/06/15 03:35:01;;;;;;;9.23;4.38;;;16.70;79.00;;;;;;5046624;28;20044;-53
2022/06/15 03:37:45;;;;;;;7.78;4.07;;;16.70;78.80;;;;;;5053080;28;20032;-54
2022/06/15 03:40:30;;;;;;;10.15;5.05;;;16.70;78.90;;;;;;5052694;28;20086;-56
2022/06/15 03:43:15;;;;;;;6.75;4.68;;;16.60;79.10;;;;;;5052533;28;20044;-52
2022/06/15 03:46:00;;;;;;;5.97;4.10;;;16.60;79.10;;;;;;5052060;28;20040;-53
2022/06/15 03:48:44;;;;;;;10.45;4.28;;;16.50;79.10;;;;;;5051914;28;20036;-49
2022/06/15 03:51:28;;;;;;;6.13;4.30;;;16.40;79.10;;;;;;5053171;28;20035;-54
2022/06/15 03:54:12;;;;;;;9.40;4.65;;;16.30;79.40;;;;;;5052486;28;20059;-54
2022/06/15 03:56:56;;;;;;;9.35;4.35;;;16.20;79.10;;;;;;5035194;28;20040;-53
2022/06/15 03:59:41;;;;;;;8.68;4.38;;;16.10;78.90;;;;;;5052416;28;20054;-53
2022/06/15 04:02:26;;;;;;;8.75;4.82;;;16.20;78.60;;;;;;5051455;28;20040;-56
2022/06/15 04:05:16;;;;;;;12.13;5.10;;;16.30;77.90;;;;;;5052708;28;20062;-57
2022/06/15 04:11:10;;;;;;;11.85;7.25;;;16.40;76.30;;;;;;5053102;28;20035;-55
2022/06/15 04:13:55;;;;;;;9.75;5.40;;;16.40;76.50;;;;;;5037867;28;20044;-54
2022/06/15 04:16:39;;;;;;;17.35;5.18;;;16.40;76.40;;;;;;5037000;28;20040;-55
2022/06/15 04:19:25;;;;;;;8.32;4.00;;;16.50;76.10;;;;;;5051809;28;20086;-59
2022/06/15 04:22:10;;;;;;;7.53;4.50;;;16.50;75.90;;;;;;5052593;28;20040;-57
2022/06/15 04:24:54;;;;;;;8.75;4.70;;;16.60;75.90;;;;;;5053056;28;20415;-58
2022/06/15 04:27:38;;;;;;;7.72;4.75;;;16.70;75.70;;;;;;5052836;28;20044;-57
2022/06/15 04:30:23;;;;;;;5.65;4.28;;;16.70;75.80;;;;;;5052369;28;20036;-54
2022/06/15 04:33:09;;;;;;;29.42;18.92;;;16.70;75.70;;;;;;5038157;28;20075;-55
2022/06/15 04:35:54;;;;;;;11.52;6.82;;;16.60;75.90;;;;;;5051666;28;20039;-54
2022/06/15 04:38:38;;;;;;;12.70;5.10;;;16.60;76.20;;;;;;5032448;28;20052;-54
2022/06/15 04:41:22;;;;;;;11.52;5.28;;;16.70;76.10;;;;;;5046894;28;20421;-55
2022/06/15 04:44:07;;;;;;;25.65;14.65;;;16.60;76.20;;;;;;5052564;28;20044;-53
2022/06/15 04:46:52;;;;;;;21.63;9.85;;;16.70;76.30;;;;;;5051746;28;20048;-52
2022/06/15 04:49:36;;;;;;;66.75;12.95;;;16.80;76.40;;;;;;5037323;28;20040;-52
2022/06/15 04:52:20;;;;;;;18.50;6.90;;;16.90;76.20;;;;;;5052786;28;20036;-54
2022/06/15 04:55:04;;;;;;;16.80;6.32;;;16.90;76.20;;;;;;5053025;28;20408;-55
2022/06/15 04:57:54;;;;;;;9.48;4.63;;;16.90;75.80;;;;;;5051122;28;20071;-55
2022/06/15 05:00:43;;;;;;;27.92;7.45;;;16.90;75.90;;;;;;5053120;28;20360;-57
2022/06/15 05:03:28;;;;;;;13.88;5.20;;;16.90;75.90;;;;;;5048628;28;20019;-52
2022/06/15 05:06:28;;;;;;;12.63;4.88;;;16.80;75.60;;;;;;5054481;28;20044;-53
2022/06/15 05:09:14;;;;;;;9.10;4.97;;;16.60;76.00;;;;;;5056482;28;20036;-54
2022/06/15 05:11:59;;;;;;;10.75;4.90;;;16.70;76.30;;;;;;5056381;28;20031;-58
2022/06/15 05:14:46;;;;;;;9.05;4.40;;;16.80;76.20;;;;;;5040601;28;20117;-56
2022/06/15 05:17:30;;;;;;;10.98;5.10;;;17.00;76.00;;;;;;5054899;28;20079;-53
2022/06/15 05:20:15;;;;;;;12.43;5.35;;;17.10;75.60;;;;;;5055542;28;20044;-54
2022/06/15 05:22:59;;;;;;;8.45;4.63;;;17.20;75.50;;;;;;5057237;28;20036;-57
2022/06/15 05:25:44;;;;;;;11.45;4.95;;;17.30;75.40;;;;;;5054959;28;20400;-59
2022/06/15 05:28:29;;;;;;;7.70;4.50;;;17.20;75.20;;;;;;5049610;28;20105;-57
2022/06/15 05:31:18;;;;;;;9.38;4.28;;;17.20;75.60;;;;;;5053976;28;20717;-54
2022/06/15 05:34:04;;;;;;;7.43;4.50;;;17.20;75.70;;;;;;5054920;28;20515;-55
2022/06/15 05:36:50;;;;;;;9.27;4.53;;;17.40;75.50;;;;;;5052322;28;20396;-54
2022/06/15 05:39:37;;;;;;;6.07;4.15;;;17.40;75.40;;;;;;5054019;28;20036;-54
2022/06/15 05:42:21;;;;;;;7.78;4.97;;;17.50;75.70;;;;;;5054217;28;20725;-54
2022/06/15 05:45:06;;;;;;;8.68;5.22;;;17.50;75.50;;;;;;5034897;28;20076;-54
2022/06/15 05:47:51;;;;;;;8.25;4.85;;;17.50;75.30;;;;;;5024807;28;20040;-52
2022/06/15 05:50:35;;;;;;;9.85;4.88;;;17.60;75.50;;;;;;5054923;28;20043;-57
2022/06/15 05:53:19;;;;;;;12.57;6.75;;;17.70;75.40;;;;;;5020795;28;20069;-53
2022/06/15 05:56:03;;;;;;;9.60;5.30;;;17.80;75.00;;;;;;5049098;28;20087;-55
2022/06/15 05:58:49;;;;;;;;;;;17.80;75.10;;;;;;5056852;28;20114;-54
2022/06/15 06:01:36;;;;;;;9.93;5.03;;;17.90;75.00;;;;;;5053123;28;19967;-56
2022/06/15 06:04:21;;;;;;;14.90;6.45;;;17.90;74.90;;;;;;5055308;28;20035;-59
2022/06/15 06:07:05;;;;;;;9.80;5.22;;;17.90;75.20;;;;;;5054087;28;20443;-53
2022/06/15 06:09:50;;;;;;;8.70;4.88;;;18.00;75.20;;;;;;5056485;28;20041;-56
2022/06/15 06:12:34;;;;;;;12.27;5.10;;;18.10;74.90;;;;;;5040127;28;20093;-51
2022/06/15 06:15:19;;;;;;;;;;;18.20;74.70;;;;;;5054772;28;20045;-58
2022/06/15 06:18:03;;;;;;;9.18;6.35;;;18.30;74.80;;;;;;5055237;28;20410;-54
2022/06/15 06:20:48;;;;;;;;;;;18.50;74.10;;;;;;5055584;28;20542;-54
2022/06/15 06:23:36;;;;;;;9.90;5.72;;;18.50;74.20;;;;;;5040993;28;19919;-53
2022/06/15 06:26:22;;;;;;;7.38;4.88;;;18.50;74.30;;;;;;5052242;28;20090;-59
2022/06/15 06:29:07;;;;;;;8.32;4.97;;;18.50;74.40;;;;;;5042114;28;20036;-60
2022/06/15 06:31:51;;;;;;;9.38;5.60;;;18.60;74.20;;;;;;5053840;28;20542;-59
2022/06/15 06:34:35;;;;;;;8.20;5.60;;;18.70;74.30;;;;;;5054854;28;20087;-60
2022/06/15 06:37:19;;;;;;;9.27;5.30;;;18.70;74.00;;;;;;5038992;28;20107;-57
2022/06/15 06:40:04;;;;;;;7.82;4.63;;;18.80;74.10;;;;;;5037457;28;20120;-58
2022/06/15 06:42:48;;;;;;;8.82;4.68;;;18.90;74.00;;;;;;5054413;28;20618;-61
2022/06/15 06:45:33;;;;;;;6.65;4.80;;;19.00;73.60;;;;;;5053684;28;20535;-60
2022/06/15 06:48:18;;;;;;;7.65;4.60;;;19.10;73.40;;;;;;5032983;28;20146;-59
2022/06/15 06:51:03;;;;;;;8.30;4.72;;;19.10;73.30;;;;;;5052391;28;20044;-59
2022/06/15 06:53:47;;;;;;;9.50;4.32;;;19.10;73.10;;;;;;5054286;28;20028;-60
2022/06/15 06:56:31;;;;;;;9.77;4.65;;;19.20;73.10;;;;;;5039857;28;20040;-59
2022/06/15 06:59:17;;;;;;;8.65;5.40;;;19.20;72.80;;;;;;5054066;28;20028;-59
2022/06/15 07:02:01;;;;;;;6.45;4.43;;;19.10;73.20;;;;;;5053990;28;20039;-61
2022/06/15 07:04:45;;;;;;;9.95;4.50;;;19.10;73.00;;;;;;5054123;28;20097;-60
2022/06/15 07:07:33;;;;;;;8.13;5.10;;;19.30;72.80;;;;;;5052596;28;20080;-59
2022/06/15 07:10:17;;;;;;;10.52;5.50;;;19.50;72.50;;;;;;5053120;28;20044;-57
2022/06/15 07:13:01;;;;;;;11.63;5.18;;;19.60;72.60;;;;;;5038895;28;20037;-60
2022/06/15 07:15:45;;;;;;;13.68;5.80;;;19.70;72.30;;;;;;5037673;28;20522;-59
2022/06/15 07:18:30;;;;;;;;;;;19.70;71.90;;;;;;5054160;28;20048;-60
2022/06/15 07:21:20;;;;;;;10.02;5.75;;;19.50;72.60;;;;;;5039384;28;19924;-60
2022/06/15 07:24:05;;;;;;;8.13;4.82;;;19.60;72.80;;;;;;5053651;28;20518;-58
2022/06/15 07:26:50;;;;;;;9.07;4.53;;;19.60;72.70;;;;;;5038560;28;20074;-57
2022/06/15 07:29:34;;;;;;;8.93;4.93;;;19.70;72.50;;;;;;5053622;28;20086;-58
2022/06/15 07:32:19;;;;;;;16.35;5.40;;;19.70;72.10;;;;;;5053772;28;20040;-59
2022/06/15 07:35:03;;;;;;;;;;;19.90;72.00;;;;;;5054879;28;20047;-58
2022/06/15 07:37:48;;;;;;;14.43;5.43;;;20.00;71.50;;;;;;5054923;28;19900;-56
2022/06/15 07:40:34;;;;;;;9.48;4.63;;;20.20;71.30;;;;;;5047398;28;20075;-53
2022/06/15 07:43:20;;;;;;;7.93;4.50;;;20.10;71.20;;;;;;5053161;28;20078;-55
2022/06/15 07:46:06;;;;;;;8.00;4.70;;;20.20;71.20;;;;;;5052622;28;20121;-54
2022/06/15 07:51:57;;;;;;;6.50;4.32;;;20.50;71.00;;;;;;5052877;28;20040;-50
2022/06/15 07:54:41;;;;;;;10.25;5.70;;;20.60;70.60;;;;;;5053265;28;20027;-56
2022/06/15 07:57:25;;;;;;;7.03;4.50;;;20.70;70.30;;;;;;5037416;28;20058;-55
2022/06/15 08:00:10;;;;;;;;;;;20.80;69.90;;;;;;5053289;28;20089;-52
2022/06/15 08:03:04;;;;;;;6.55;4.03;;;20.90;69.50;;;;;;5053379;28;20288;-58
2022/06/15 08:05:50;;;;;;;10.95;4.97;;;21.00;69.40;;;;;;5051502;28;20068;-57
2022/06/15 08:08:45;;;;;;;9.45;4.28;;;20.90;70.40;;;;;;5042542;28;20048;-54
2022/06/15 08:11:30;;;;;;;10.02;5.18;;;20.90;69.30;;;;;;5054224;28;20035;-52
2022/06/15 08:14:14;;;;;;;8.45;4.63;;;21.00;69.20;;;;;;5038975;28;20047;-51
2022/06/15 08:17:00;;;;;;;6.47;3.95;;;21.10;69.40;;;;;;5038555;28;20059;-57
2022/06/15 08:19:50;;;;;;;9.40;4.38;;;21.30;68.50;;;;;;5037204;28;20048;-52
2022/06/15 08:22:36;;;;;;;9.82;4.45;;;21.40;68.30;;;;;;5052694;28;20523;-57
2022/06/15 08:25:28;;;;;;;10.77;4.47;;;21.50;68.20;;;;;;5052524;28;20496;-52
2022/06/15 08:28:15;;;;;;;5.13;3.63;;;21.70;67.70;;;;;;5037418;28;20048;-54
2022/06/15 08:30:59;;;;;;;8.45;4.57;;;21.80;67.60;;;;;;5051611;28;20404;-58
2022/06/15 08:33:43;;;;;;;12.13;4.95;;;21.90;66.80;;;;;;5052229;28;20031;-57
2022/06/15 08:36:28;;;;;;;7.80;4.68;;;22.00;66.60;;;;;;5046941;28;20088;-57
2022/06/15 08:39:13;;;;;;;4.90;3.90;;;22.10;66.80;;;;;;5033121;28;20044;-54
2022/06/15 08:42:12;;;;;;;10.40;4.35;;;22.20;66.30;;;;;;5017981;28;20048;-53
2022/06/15 08:45:07;;;;;;;6.50;3.58;;;22.40;65.50;;;;;;5051417;28;20426;-53
2022/06/15 08:48:17;;;;;;;7.80;4.65;;;22.40;65.80;;;;;;5052094;28;20036;-55
2022/06/15 08:51:19;;;;;;;6.95;3.88;;;22.60;65.40;;;;;;5030785;28;20152;-57
2022/06/15 08:54:18;;;;;;;9.70;4.15;;;22.80;64.80;;;;;;5017708;28;20032;-55
2022/06/15 08:57:13;;;;;;;9.57;3.88;;;22.80;64.90;;;;;;5035754;28;20574;-56
2022/06/15 09:00:04;;;;;;;9.40;4.25;;;22.90;64.60;;;;;;5052726;28;20056;-59
2022/06/15 09:03:23;;;;;;;7.03;4.07;;;23.00;64.20;;;;;;5052628;28;20150;-55
2022/06/15 09:06:23;;;;;;;9.63;3.65;;;23.00;64.20;;;;;;5049333;28;20055;-52
2022/06/15 09:09:22;;;;;;;9.00;3.63;;;23.10;63.40;;;;;;5054002;28;20036;-57
2022/06/15 09:12:49;;;;;;;9.52;3.50;;;23.10;62.10;;;;;;5046194;28;20036;-57
2022/06/15 09:16:07;;;;;;;8.10;3.55;;;23.30;62.50;;;;;;5041864;28;20615;-56
2022/06/15 09:19:10;;;;;;;6.18;3.72;;;23.30;61.50;;;;;;5052168;28;20032;-53
2022/06/15 09:22:03;;;;;;;41.63;7.43;;;23.30;61.00;;;;;;5033586;28;20572;-57
2022/06/15 09:24:54;;;;;;;11.48;4.53;;;23.20;61.20;;;;;;5052351;28;20524;-55
2022/06/15 09:28:01;;;;;;;10.45;4.07;;;23.30;60.90;;;;;;5051379;28;20415;-56
2022/06/15 09:30:45;;;;;;;6.57;3.83;;;23.50;61.10;;;;;;5048198;28;20455;-58
2022/06/15 09:33:38;;;;;;;;;;;23.70;60.50;;;;;;5051878;28;20056;-55
2022/06/15 09:36:29;;;;;;;8.13;3.55;;;23.80;60.50;;;;;;5051793;28;19916;-55
2022/06/15 09:39:14;;;;;;;7.18;3.40;;;23.80;60.80;;;;;;5052207;28;20095;-56
2022/06/15 09:42:21;;;;;;;6.95;3.70;;;23.90;60.30;;;;;;5052513;28;20646;-51
2022/06/15 09:45:28;;;;;;;8.52;3.80;;;24.00;60.10;;;;;;5051430;28;20160;-55
2022/06/15 09:48:22;;;;;;;4.93;3.30;;;24.10;59.80;;;;;;5054829;28;20083;-59
2022/06/15 09:51:16;;;;;;;5.97;3.20;;;24.10;59.20;;;;;;5055564;28;20036;-53
2022/06/15 09:54:32;;;;;;;6.33;3.33;;;24.00;59.30;;;;;;5055399;28;20036;-55
2022/06/15 09:57:18;;;;;;;7.22;3.30;;;24.10;59.80;;;;;;5048572;28;20286;-57
2022/06/15 10:00:04;;;;;;;9.35;4.07;;;24.40;59.40;;;;;;5055299;28;20028;-56
2022/06/15 10:02:55;;;;;;;4.95;3.30;;;24.30;59.00;;;;;;5039621;28;20092;-52
2022/06/15 10:05:43;;;;;;;7.13;3.72;;;24.30;58.90;;;;;;5044106;28;20082;-56
2022/06/15 10:08:27;;;;;;;9.23;3.92;;;24.30;58.90;;;;;;5035569;28;20117;-54
2022/06/15 10:11:21;;;;;;;8.23;3.92;;;24.40;59.00;;;;;;5038657;28;20190;-55
2022/06/15 10:14:27;;;;;;;12.77;4.95;;;24.60;59.30;;;;;;5035107;28;20328;-55
2022/06/15 10:17:24;;;;;;;7.28;3.75;;;24.80;58.90;;;;;;5054008;28;20031;-58
2022/06/15 10:20:21;;;;;;;10.68;4.25;;;24.80;58.90;;;;;;5055517;28;20091;-55
2022/06/15 10:23:20;;;;;;;10.02;3.95;;;25.00;58.30;;;;;;5054877;28;20103;-56
2022/06/15 10:26:07;;;;;;;6.55;3.50;;;24.90;57.70;;;;;;5054408;28;20028;-53
2022/06/15 10:28:51;;;;;;;4.22;3.38;;;24.80;57.80;;;;;;5040214;28;20083;-54
2022/06/15 10:31:35;;;;;;;6.47;3.88;;;24.70;58.00;;;;;;5023897;28;20108;-50
2022/06/15 10:34:29;;;;;;;6.60;3.30;;;24.80;58.30;;;;;;5055273;28;20125;-53
2022/06/15 10:37:25;;;;;;;5.72;3.58;;;24.90;58.00;;;;;;5053965;28;20036;-55
2022/06/15 10:40:37;;;;;;;5.55;3.42;;;24.80;57.60;;;;;;5054295;28;20039;-57
2022/06/15 10:43:32;;;;;;;9.35;3.83;;;24.90;57.60;;;;;;5054744;28;20106;-55
2022/06/15 10:46:17;;;;;;;10.82;4.10;;;25.00;58.40;;;;;;5039847;28;20511;-55
2022/06/15 10:49:02;;;;;;;9.75;4.13;;;25.20;58.20;;;;;;5053682;28;20039;-56
2022/06/15 10:51:46;;;;;;;7.72;3.78;;;25.30;57.90;;;;;;5052155;28;20039;-52
2022/06/15 11:02:06;;;;;;;5.93;3.60;;;25.40;57.60;;;;;;5054160;28;20527;-56
2022/06/15 11:04:19;;;;;;;6.25;3.42;;;25.40;56.70;;;;;;5041742;28;20448;-55
2022/06/15 11:07:08;;;;;;;7.72;3.75;;;25.50;56.80;;;;;;5053112;28;20031;-56
2022/06/15 11:09:55;;;;;;;7.18;3.50;;;25.30;56.70;;;;;;5050546;28;20035;-55
2022/06/15 11:13:00;;;;;;;7.50;3.30;;;25.30;56.70;;;;;;5039963;28;20106;-56
2022/06/15 11:19:04;;;;;;;5.72;3.40;;;25.40;56.00;;;;;;5054045;28;20036;-58
2022/06/15 11:22:04;;;;;;;13.85;4.68;;;25.50;56.10;;;;;;5054475;28;20408;-56
2022/06/15 11:25:04;;;;;;;9.65;4.43;;;25.50;56.80;;;;;;5053715;28;20063;-55
2022/06/15 11:28:00;;;;;;;8.82;3.75;;;25.80;56.40;;;;;;5054397;28;20032;-56
2022/06/15 11:31:16;;;;;;;6.78;3.72;;;25.80;56.20;;;;;;5052630;28;20447;-55
2022/06/15 11:34:12;;;;;;;5.72;3.70;;;25.90;56.30;;;;;;5030162;28;20103;-54
2022/06/15 11:37:10;;;;;;;7.63;3.45;;;25.90;55.60;;;;;;5053255;28;20099;-55
2022/06/15 11:40:05;;;;;;;23.08;6.07;;;25.80;55.50;;;;;;5053601;28;20123;-55
2022/06/15 11:42:51;;;;;;;13.35;4.68;;;25.80;55.50;;;;;;5051229;28;20071;-54
2022/06/15 11:45:48;;;;;;;6.43;3.40;;;26.00;55.70;;;;;;5053566;28;20060;-55
2022/06/15 11:48:56;;;;;;;9.82;3.72;;;26.10;55.40;;;;;;5052035;28;20075;-55
2022/06/15 11:52:00;;;;;;;6.28;3.13;;;26.00;55.00;;;;;;5052242;28;20082;-54
2022/06/15 11:55:02;;;;;;;7.88;3.67;;;26.00;55.40;;;;;;5035864;28;20082;-55
2022/06/15 11:57:46;;;;;;;5.45;3.55;;;26.10;55.00;;;;;;5050741;28;20166;-54
2022/06/15 12:00:47;;;;;;;6.38;3.45;;;26.00;54.60;;;;;;5051524;28;20032;-52
2022/06/15 12:03:47;;;;;;;7.85;3.30;;;25.90;54.70;;;;;;5052165;28;20044;-53
2022/06/15 12:06:47;;;;;;;8.30;4.30;;;25.90;54.90;;;;;;5051505;28;20036;-60
2022/06/15 12:10:08;;;;;;;8.15;3.78;;;26.10;54.30;;;;;;5052862;28;20028;-55
2022/06/15 12:12:59;;;;;;;4.57;3.30;;;26.30;54.30;;;;;;5038290;28;20035;-56
2022/06/15 12:16:12;;;;;;;4.05;3.15;;;26.40;54.20;;;;;;5052218;28;20048;-55
2022/06/15 12:19:09;;;;;;;6.35;4.03;;;26.50;54.30;;;;;;5053299;28;20039;-55
2022/06/15 12:22:13;;;;;;;6.72;3.30;;;26.80;54.50;;;;;;5051988;28;20090;-57
2022/06/15 12:25:33;;;;;;;8.50;3.72;;;26.90;54.10;;;;;;5054608;28;20039;-53
2022/06/15 12:28:35;;;;;;;9.25;4.05;;;27.10;53.90;;;;;;5032633;28;20094;-57
2022/06/15 12:31:26;;;;;;;9.30;3.85;;;27.10;53.60;;;;;;5052839;28;20047;-61
2022/06/15 12:34:28;;;;;;;6.82;3.47;;;27.10;53.40;;;;;;5055455;28;20507;-57
2022/06/15 12:37:40;;;;;;;7.35;3.60;;;27.00;53.60;;;;;;5044636;28;20060;-59
2022/06/15 12:40:50;;;;;;;11.63;4.13;;;26.90;53.20;;;;;;5055530;28;20043;-59
2022/06/15 12:43:44;;;;;;;9.18;3.75;;;27.10;53.80;;;;;;5058113;28;20094;-58
2022/06/15 12:46:29;;;;;;;4.32;3.10;;;27.20;53.20;;;;;;5051394;28;20086;-54
2022/06/15 12:49:49;;;;;;;11.60;3.92;;;27.20;52.20;;;;;;5052024;28;20051;-53
2022/06/15 12:52:43;;;;;;;6.20;3.90;;;27.30;53.10;;;;;;4957069;28;20045;-55
2022/06/15 12:55:38;;;;;;;9.35;3.65;;;27.10;52.30;;;;;;5040706;28;20047;-53
2022/06/15 12:58:35;;;;;;;6.50;4.15;;;27.20;53.10;;;;;;5050833;28;20044;-54
2022/06/15 13:01:23;;;;;;;6.93;3.58;;;27.40;53.10;;;;;;5050642;28;20035;-54
2022/06/15 13:04:37;;;;;;;6.15;3.75;;;27.50;51.80;;;;;;5052505;28;20079;-58
2022/06/15 13:07:31;;;;;;;9.20;4.22;;;27.30;52.20;;;;;;5032371;28;20550;-56
2022/06/15 13:10:24;;;;;;;8.07;3.72;;;27.10;51.60;;;;;;5036368;28;20247;-55
2022/06/15 13:13:22;;;;;;;11.10;3.53;;;26.90;52.70;;;;;;5052799;28;20504;-55
2022/06/15 13:16:11;;;;;;;10.43;3.30;;;27.20;52.20;;;;;;5044232;28;20064;-52
2022/06/15 13:18:56;;;;;;;7.28;3.30;;;27.20;51.10;;;;;;5051680;28;20044;-54
2022/06/15 13:22:07;;;;;;;8.35;3.53;;;27.30;51.90;;;;;;5036051;28;20144;-50
2022/06/15 13:24:56;;;;;;;9.00;3.50;;;27.20;51.40;;;;;;5051221;28;20071;-59
2022/06/15 13:28:02;;;;;;;5.47;3.22;;;27.50;52.30;;;;;;5066544;28;20027;-56
2022/06/15 13:31:02;;;;;;;8.20;3.60;;;27.70;50.40;;;;;;5038986;28;20094;-57
2022/06/15 13:33:48;;;;;;;4.70;3.38;;;28.00;51.00;;;;;;5055514;28;20032;-55
2022/06/15 13:36:33;;;;;;;5.82;3.53;;;28.30;50.60;;;;;;5055355;28;20290;-53
2022/06/15 13:39:25;;;;;;;4.50;3.22;;;28.40;49.70;;;;;;5040228;28;20036;-55
2022/06/15 13:42:21;;;;;;;5.72;4.00;;;28.40;49.00;;;;;;5055261;28;20091;-53
2022/06/15 13:45:17;;;;;;;4.85;3.30;;;28.70;49.20;;;;;;5051960;28;20534;-52
2022/06/15 13:48:19;;;;;;;4.55;3.10;;;28.70;48.70;;;;;;5036142;28;20037;-56
2022/06/15 13:51:11;;;;;;;15.25;5.13;;;28.90;48.80;;;;;;5046645;28;20396;-51
2022/06/15 13:54:08;;;;;;;9.60;4.25;;;28.90;48.40;;;;;;5055223;28;20512;-55
2022/06/15 13:57:16;;;;;;;6.85;3.67;;;29.00;48.70;;;;;;5052065;28;20028;-52
2022/06/15 14:00:40;;;;;;;6.10;3.75;;;29.40;49.50;;;;;;5056238;28;20420;-57
2022/06/15 14:03:58;;;;;;;5.63;3.20;;;29.70;48.80;;;;;;4975300;28;20042;-55
2022/06/15 14:07:15;;;;;;;7.32;3.75;;;29.70;47.80;;;;;;5026460;28;20051;-55
2022/06/15 14:10:26;;;;;;;11.55;3.60;;;29.10;48.10;;;;;;5055229;28;20075;-56
2022/06/15 14:14:01;;;;;;;5.13;3.58;;;29.10;48.00;;;;;;5054705;28;20021;-53
2022/06/15 14:16:56;;;;;;;;;;;29.60;47.70;;;;;;5039634;28;20032;-57
2022/06/15 14:19:57;;;;;;;4.47;2.80;;;29.50;47.20;;;;;;5055261;28;20278;-57
2022/06/15 14:22:44;;;;;;;3.95;3.50;;;29.70;47.40;;;;;;5054848;28;20048;-52
2022/06/15 14:25:36;;;;;;;4.68;3.35;;;29.90;47.80;;;;;;5054261;28;20067;-56
2022/06/15 14:28:27;;;;;;;5.07;3.22;;;30.10;46.90;;;;;;5054811;28;20385;-53
2022/06/15 14:31:18;;;;;;;5.00;3.35;;;30.20;46.90;;;;;;5054094;28;20518;-58
2022/06/15 14:34:18;;;;;;;7.07;3.00;;;30.20;47.30;;;;;;5055065;28;20044;-57
2022/06/15 14:37:10;;;;;;;11.77;3.72;;;30.20;47.70;;;;;;5034447;28;20080;-53
2022/06/15 14:39:55;;;;;;;5.13;3.50;;;30.10;47.60;;;;;;5048505;28;20156;-56
2022/06/15 14:42:54;;;;;;;6.75;3.22;;;30.00;47.40;;;;;;5056499;28;20499;-59
2022/06/15 14:45:53;;;;;;;5.45;3.17;;;30.10;47.50;;;;;;5060153;28;20047;-56
2022/06/15 14:48:38;;;;;;;4.82;3.00;;;30.40;47.70;;;;;;5054955;28;20071;-52
2022/06/15 14:51:27;;;;;;;9.55;4.13;;;30.60;47.30;;;;;;5054861;28;20047;-57
2022/06/15 14:54:18;;;;;;;6.07;3.40;;;30.80;47.10;;;;;;5039413;28;20032;-55
2022/06/15 14:57:03;;;;;;;8.07;4.55;;;31.00;46.60;;;;;;5053150;28;20602;-54
2022/06/15 14:59:51;;;;;;;7.30;3.33;;;31.10;46.90;;;;;;5055960;28;20051;-49
2022/06/15 15:02:47;;;;;;;5.80;3.55;;;31.50;47.60;;;;;;5056328;28;20646;-55
2022/06/15 15:05:34;;;;;;;6.85;3.90;;;31.70;46.80;;;;;;5057034;28;20039;-57
2022/06/15 15:08:34;;;;;;;9.60;7.05;;;32.00;47.30;;;;;;5058228;28;20047;-55
2022/06/15 15:11:35;;;;;;;6.32;3.38;;;32.30;45.40;;;;;;5056598;28;20511;-60